createdAt,value
2023-04-19T00:01:28.376Z,6.60
2023-04-19T00:03:56.316Z,4.40
2023-04-19T00:06:23.412Z,5.30
2023-04-19T00:08:49.889Z,5.77
2023-04-19T00:11:16.372Z,9.57
2023-04-19T00:13:42.852Z,5.67
2023-04-19T00:16:09.440Z,4.97
2023-04-19T00:18:36.465Z,7.60
2023-04-19T00:21:03.053Z,6.90
2023-04-19T00:23:29.532Z,5.53
2023-04-19T00:25:55.998Z,6.40
2023-04-19T00:28:22.472Z,5.00
2023-04-19T00:30:48.950Z,5.33
2023-04-19T00:33:15.530Z,5.13
2023-04-19T00:35:42.360Z,4.90
2023-04-19T00:38:08.935Z,7.23
2023-04-19T00:40:36.796Z,6.53
2023-04-19T00:43:03.285Z,5.43
2023-04-19T00:45:29.960Z,4.80
2023-04-19T00:47:56.583Z,5.90
2023-04-19T00:50:23.194Z,6.87
2023-04-19T00:52:49.680Z,8.73
2023-04-19T00:55:16.309Z,4.73
2023-04-19T00:57:43.064Z,4.83
2023-04-19T01:00:10.132Z,4.83
2023-04-19T01:02:36.883Z,6.33
2023-04-19T01:05:03.582Z,6.03
2023-04-19T01:07:30.141Z,6.33
2023-04-19T01:09:56.723Z,5.87
2023-04-19T01:12:23.220Z,7.30
2023-04-19T01:14:50.681Z,7.10
2023-04-19T01:17:18.839Z,7.10
2023-04-19T01:19:46.078Z,5.77
2023-04-19T01:22:21.462Z,6.47
2023-04-19T01:24:47.922Z,5.97
2023-04-19T01:27:14.730Z,5.20
2023-04-19T01:29:41.232Z,5.40
2023-04-19T01:32:07.939Z,5.73
2023-04-19T01:34:34.519Z,4.97
2023-04-19T01:37:01.028Z,6.43
2023-04-19T01:39:27.550Z,5.27
2023-04-19T01:41:54.005Z,6.73
2023-04-19T01:44:20.458Z,5.70
2023-04-19T01:46:46.951Z,8.87
2023-04-19T01:49:13.508Z,4.90
2023-04-19T01:51:40.051Z,7.70
2023-04-19T01:54:06.539Z,5.70
2023-04-19T01:56:33.267Z,6.70
2023-04-19T01:58:59.753Z,5.13
2023-04-19T02:01:26.344Z,5.50
2023-04-19T02:03:53.066Z,5.87
2023-04-19T02:06:19.724Z,8.57
2023-04-19T02:08:46.227Z,4.70
2023-04-19T02:11:16.776Z,6.33
2023-04-19T02:13:43.398Z,4.93
2023-04-19T02:16:10.872Z,5.63
2023-04-19T02:18:38.660Z,5.00
2023-04-19T02:21:06.167Z,5.70
2023-04-19T02:23:33.062Z,7.40
2023-04-19T02:26:01.431Z,5.67
2023-04-19T02:28:27.879Z,4.67
2023-04-19T02:30:54.314Z,6.37
2023-04-19T02:33:22.291Z,4.77
2023-04-19T02:35:48.723Z,6.40
2023-04-19T02:38:15.581Z,7.43
2023-04-19T02:40:42.064Z,5.10
2023-04-19T02:43:08.543Z,4.57
2023-04-19T02:45:35.121Z,4.00
2023-04-19T02:48:02.340Z,5.93
2023-04-19T02:50:28.951Z,6.87
2023-04-19T02:52:55.423Z,5.80
2023-04-19T02:55:22.140Z,5.03
2023-04-19T02:57:48.630Z,6.07
2023-04-19T03:00:15.532Z,4.60
2023-04-19T03:02:43.714Z,5.97
2023-04-19T03:05:10.747Z,6.00
2023-04-19T03:07:37.205Z,5.97
2023-04-19T03:10:04.016Z,6.13
2023-04-19T03:12:30.471Z,6.00
2023-04-19T03:14:56.933Z,5.13
2023-04-19T03:17:23.409Z,6.27
2023-04-19T03:19:49.881Z,4.07
2023-04-19T03:22:16.288Z,4.90
2023-04-19T03:24:42.810Z,5.17
2023-04-19T03:27:09.309Z,5.10
2023-04-19T03:29:35.816Z,5.43
2023-04-19T03:32:02.303Z,5.20
2023-04-19T03:34:28.783Z,4.47
2023-04-19T03:36:55.577Z,6.30
2023-04-19T03:39:22.073Z,8.70
2023-04-19T03:41:48.553Z,4.93
2023-04-19T03:44:15.446Z,6.33
2023-04-19T03:46:42.260Z,4.10
2023-04-19T03:49:08.756Z,4.37
2023-04-19T03:51:35.373Z,3.87
2023-04-19T03:54:01.841Z,3.17
2023-04-19T03:56:28.334Z,4.70
2023-04-19T03:58:55.625Z,3.73
2023-04-19T04:01:22.741Z,5.37
2023-04-19T04:03:49.648Z,5.80
2023-04-19T04:06:16.404Z,4.00
2023-04-19T04:08:42.902Z,4.20
2023-04-19T04:11:09.533Z,4.70
2023-04-19T04:13:36.091Z,6.07
2023-04-19T04:16:02.638Z,3.93
2023-04-19T04:18:29.216Z,4.17
2023-04-19T04:20:55.705Z,4.43
2023-04-19T04:23:22.780Z,4.17
2023-04-19T04:25:58.040Z,5.57
2023-04-19T04:28:24.546Z,6.63
2023-04-19T04:30:51.949Z,5.03
2023-04-19T04:33:18.662Z,6.93
2023-04-19T04:35:45.117Z,7.57
2023-04-19T04:38:23.451Z,4.97
2023-04-19T04:40:54.707Z,8.10
2023-04-19T04:43:22.853Z,4.80
2023-04-19T04:45:49.899Z,3.80
2023-04-19T04:48:16.429Z,6.57
2023-04-19T04:50:43.026Z,5.07
2023-04-19T04:53:12.314Z,4.93
2023-04-19T04:55:39.394Z,5.60
2023-04-19T04:58:05.935Z,6.80
2023-04-19T05:00:32.703Z,3.73
2023-04-19T05:03:00.082Z,5.00
2023-04-19T05:05:26.780Z,5.40
2023-04-19T05:07:53.252Z,4.93
2023-04-19T05:10:19.757Z,3.33
2023-04-19T05:12:46.241Z,4.30
2023-04-19T05:15:12.738Z,4.23
2023-04-19T05:17:39.256Z,6.20
2023-04-19T05:20:07.794Z,6.40
2023-04-19T05:22:34.367Z,3.90
2023-04-19T05:25:01.088Z,4.47
2023-04-19T05:27:27.553Z,2.47
2023-04-19T05:29:54.052Z,5.47
2023-04-19T05:32:20.795Z,4.60
2023-04-19T05:34:47.472Z,2.40
2023-04-19T05:37:14.043Z,3.10
2023-04-19T05:39:42.868Z,4.43
2023-04-19T05:42:10.751Z,3.07
2023-04-19T05:44:37.227Z,2.17
2023-04-19T05:47:03.723Z,2.40
2023-04-19T05:49:30.291Z,2.33
2023-04-19T05:51:57.098Z,3.90
2023-04-19T05:54:23.850Z,2.20
2023-04-19T05:56:50.389Z,3.10
2023-04-19T05:59:16.921Z,2.33
2023-04-19T06:01:43.524Z,2.07
2023-04-19T06:04:10.353Z,1.87
2023-04-19T06:06:38.163Z,3.20
2023-04-19T06:09:04.910Z,2.33
2023-04-19T06:11:39.389Z,4.03
2023-04-19T06:14:14.730Z,2.13
2023-04-19T06:16:41.779Z,2.60
2023-04-19T06:19:08.316Z,2.33
2023-04-19T06:21:34.947Z,4.23
2023-04-19T06:24:01.610Z,1.87
2023-04-19T06:26:29.226Z,4.87
2023-04-19T06:28:55.925Z,6.63
2023-04-19T06:31:22.461Z,39.77
2023-04-19T06:33:48.998Z,12.80
2023-04-19T06:36:15.509Z,23.33
2023-04-19T06:38:44.443Z,28.90
2023-04-19T06:41:11.004Z,43.97
2023-04-19T06:43:37.486Z,14.10
2023-04-19T06:46:06.908Z,20.93
2023-04-19T06:48:34.285Z,39.53
2023-04-19T06:51:01.086Z,29.43
2023-04-19T06:53:27.587Z,9.50
2023-04-19T06:56:00.124Z,19.73
2023-04-19T06:58:27.366Z,12.03
2023-04-19T07:00:54.154Z,2.10
2023-04-19T07:03:21.249Z,1.70
2023-04-19T07:05:48.230Z,3.27
2023-04-19T07:08:15.008Z,4.23
2023-04-19T07:10:43.775Z,2.40
2023-04-19T07:13:13.384Z,2.03
2023-04-19T07:15:39.944Z,2.83
2023-04-19T07:18:06.577Z,2.23
2023-04-19T07:20:33.642Z,2.00
2023-04-19T07:23:00.211Z,1.70
2023-04-19T07:25:26.828Z,2.57
2023-04-19T07:27:54.678Z,2.53
2023-04-19T07:30:21.321Z,2.33
2023-04-19T07:32:48.007Z,2.47
2023-04-19T07:35:14.628Z,3.20
2023-04-19T07:37:42.701Z,1.97
2023-04-19T07:40:09.871Z,2.43
2023-04-19T07:42:36.436Z,2.63
2023-04-19T07:45:03.231Z,3.53
2023-04-19T07:47:29.804Z,1.93
2023-04-19T07:49:56.540Z,2.37
2023-04-19T07:52:22.992Z,2.17
2023-04-19T07:54:49.773Z,1.93
2023-04-19T07:57:16.220Z,2.47
2023-04-19T07:59:42.679Z,2.60
2023-04-19T08:02:09.295Z,1.53
2023-04-19T08:04:37.460Z,1.87
2023-04-19T08:07:04.877Z,1.70
2023-04-19T08:09:33.948Z,1.50
2023-04-19T08:12:01.382Z,3.20
2023-04-19T08:14:37.432Z,2.23
2023-04-19T08:17:24.187Z,1.87
2023-04-19T08:19:52.549Z,1.67
2023-04-19T08:22:20.345Z,1.83
2023-04-19T08:24:46.911Z,1.47
2023-04-19T08:27:13.390Z,3.97
2023-04-19T08:29:40.578Z,1.57
2023-04-19T08:32:07.436Z,3.50
2023-04-19T08:34:39.128Z,1.27
2023-04-19T08:37:07.276Z,1.93
2023-04-19T08:39:34.683Z,1.87
2023-04-19T08:42:11.098Z,1.83
2023-04-19T08:44:59.689Z,1.33
2023-04-19T08:47:44.896Z,2.03
2023-04-19T08:50:32.410Z,3.07
2023-04-19T08:53:15.636Z,2.00
2023-04-19T08:56:06.767Z,1.47
2023-04-19T08:58:52.016Z,1.53
2023-04-19T09:01:33.917Z,2.57
2023-04-19T09:04:17.313Z,2.93
2023-04-19T09:06:53.493Z,2.00
2023-04-19T09:11:51.624Z,1.13
2023-04-19T09:14:19.724Z,2.10
2023-04-19T09:16:46.329Z,1.23
2023-04-19T09:19:23.439Z,1.50
2023-04-19T09:21:53.808Z,2.73
2023-04-19T09:25:04.534Z,2.40
2023-04-19T09:27:27.192Z,1.27
2023-04-19T09:29:55.429Z,2.27
2023-04-19T09:32:22.696Z,1.20
2023-04-19T09:35:00.427Z,1.67
2023-04-19T09:39:57.021Z,1.60
2023-04-19T09:42:42.382Z,2.60
2023-04-19T09:45:28.289Z,1.60
2023-04-19T09:48:04.786Z,3.20
2023-04-19T09:50:32.201Z,7.47
2023-04-19T09:53:01.042Z,3.87
2023-04-19T09:55:29.226Z,2.77
2023-04-19T09:57:58.107Z,2.90
2023-04-19T10:00:25.103Z,2.30
2023-04-19T10:02:57.991Z,2.50
2023-04-19T10:05:25.847Z,4.03
2023-04-19T10:07:57.460Z,4.20
2023-04-19T10:10:40.584Z,3.73
2023-04-19T10:13:19.861Z,2.23
2023-04-19T10:15:52.705Z,2.97
2023-04-19T10:18:23.803Z,3.00
2023-04-19T10:21:00.071Z,3.53
2023-04-19T10:23:26.785Z,2.80
2023-04-19T10:26:00.459Z,2.90
2023-04-19T10:28:31.020Z,2.57
2023-04-19T10:31:03.489Z,3.20
2023-04-19T10:33:34.472Z,5.07
2023-04-19T10:36:01.554Z,1.90
2023-04-19T10:38:55.517Z,4.43
2023-04-19T10:41:22.880Z,2.93
2023-04-19T10:44:08.586Z,2.53
2023-04-19T10:46:36.173Z,2.27
2023-04-19T10:49:04.361Z,3.57
2023-04-19T10:51:44.228Z,3.53
2023-04-19T10:54:36.537Z,1.80
2023-04-19T10:57:07.552Z,2.00
2023-04-19T10:59:35.049Z,3.97
2023-04-19T11:02:04.337Z,2.77
2023-04-19T11:04:51.150Z,3.53
2023-04-19T11:07:18.495Z,3.20
2023-04-19T11:09:46.085Z,3.07
2023-04-19T11:12:14.513Z,2.13
2023-04-19T11:14:42.794Z,4.73
2023-04-19T11:17:27.762Z,3.20
2023-04-19T11:20:00.684Z,2.57
2023-04-19T11:22:36.038Z,3.77
2023-04-19T11:25:09.230Z,3.00
2023-04-19T11:27:35.898Z,2.10
2023-04-19T11:30:07.033Z,2.80
2023-04-19T11:32:33.731Z,3.93
2023-04-19T11:35:08.464Z,3.73
2023-04-19T11:37:38.219Z,2.83
2023-04-19T11:40:06.523Z,3.83
2023-04-19T11:42:33.773Z,3.13
2023-04-19T11:45:00.463Z,3.17
2023-04-19T11:47:27.426Z,2.90
2023-04-19T11:49:56.985Z,4.87
2023-04-19T11:52:25.607Z,2.63
2023-04-19T11:54:53.094Z,4.47
2023-04-19T11:57:30.633Z,3.00
2023-04-19T12:00:11.801Z,2.83
2023-04-19T12:02:43.827Z,3.97
2023-04-19T12:05:14.658Z,3.10
2023-04-19T12:08:00.413Z,2.90
2023-04-19T12:10:26.956Z,2.37
2023-04-19T12:12:53.408Z,2.50
2023-04-19T12:15:21.795Z,3.73
2023-04-19T12:18:00.550Z,2.30
2023-04-19T12:20:34.704Z,2.63
2023-04-19T12:23:01.243Z,2.67
2023-04-19T12:25:29.448Z,3.47
2023-04-19T12:27:56.752Z,2.00
2023-04-19T12:30:23.321Z,2.40
2023-04-19T12:32:51.477Z,3.80
2023-04-19T12:35:18.182Z,3.07
2023-04-19T12:37:44.625Z,2.20
2023-04-19T12:40:11.912Z,2.37
2023-04-19T12:42:38.353Z,2.60
2023-04-19T12:45:05.502Z,2.50
2023-04-19T12:47:32.025Z,2.70
2023-04-19T12:49:58.638Z,3.67
2023-04-19T12:52:25.199Z,3.63
2023-04-19T12:54:51.680Z,4.53
2023-04-19T12:57:18.155Z,3.67
2023-04-19T12:59:44.642Z,3.90
2023-04-19T13:02:11.165Z,3.37
2023-04-19T13:04:37.827Z,3.37
2023-04-19T13:07:04.368Z,3.33
2023-04-19T13:09:30.860Z,2.43
2023-04-19T13:11:58.096Z,1.87
2023-04-19T13:14:26.469Z,2.90
2023-04-19T13:16:52.991Z,3.63
2023-04-19T13:19:19.626Z,5.53
2023-04-19T13:21:46.123Z,3.40
2023-04-19T13:24:12.595Z,2.53
2023-04-19T13:26:39.254Z,5.53
2023-04-19T13:29:05.775Z,3.57
2023-04-19T13:31:32.309Z,3.53
2023-04-19T13:34:00.501Z,4.37
2023-04-19T13:36:28.163Z,4.67
2023-04-19T13:38:54.759Z,3.43
2023-04-19T13:41:21.378Z,4.27
2023-04-19T13:43:48.243Z,8.40
2023-04-19T13:46:14.814Z,2.57
2023-04-19T13:48:41.300Z,4.07
2023-04-19T13:51:08.447Z,2.87
2023-04-19T13:53:35.004Z,3.03
2023-04-19T13:56:01.559Z,3.70
2023-04-19T13:58:28.076Z,2.40
2023-04-19T14:00:54.722Z,2.90
2023-04-19T14:03:23.122Z,4.83
2023-04-19T14:05:49.832Z,6.80
2023-04-19T14:08:16.387Z,3.03
2023-04-19T14:10:42.854Z,2.63
2023-04-19T14:13:09.353Z,6.00
2023-04-19T14:15:35.887Z,2.70
2023-04-19T14:18:02.578Z,4.47
2023-04-19T14:20:29.130Z,3.57
2023-04-19T14:22:56.208Z,4.07
2023-04-19T14:25:22.692Z,5.83
2023-04-19T14:27:49.134Z,4.83
2023-04-19T14:30:15.842Z,4.40
2023-04-19T14:32:42.512Z,3.00
2023-04-19T14:35:11.263Z,4.40
2023-04-19T14:37:38.451Z,4.07
2023-04-19T14:40:05.519Z,2.67
2023-04-19T14:42:32.476Z,2.00
2023-04-19T14:44:59.047Z,2.23
2023-04-19T14:47:25.522Z,3.77
2023-04-19T14:49:52.520Z,3.27
2023-04-19T14:52:19.192Z,3.67
2023-04-19T14:54:46.128Z,3.77
2023-04-19T14:57:13.664Z,2.93
2023-04-19T14:59:40.382Z,4.70
2023-04-19T15:02:07.283Z,3.37
2023-04-19T15:04:37.416Z,3.93
2023-04-19T15:07:06.327Z,2.03
2023-04-19T15:09:32.794Z,3.03
2023-04-19T15:11:59.359Z,4.03
2023-04-19T15:14:25.795Z,4.27
2023-04-19T15:16:52.300Z,2.30
2023-04-19T15:19:19.050Z,2.00
2023-04-19T15:21:45.897Z,3.87
2023-04-19T15:24:12.359Z,2.23
2023-04-19T15:26:39.320Z,5.07
2023-04-19T15:29:05.855Z,2.60
2023-04-19T15:31:32.548Z,3.50
2023-04-19T15:34:02.927Z,3.20
2023-04-19T15:36:29.672Z,2.40
2023-04-19T15:38:57.060Z,4.60
2023-04-19T15:41:23.588Z,2.77
2023-04-19T15:43:50.045Z,4.97
2023-04-19T15:46:16.785Z,3.70
2023-04-19T15:48:44.520Z,2.33
2023-04-19T15:51:11.507Z,4.60
2023-04-19T15:53:38.231Z,3.43
2023-04-19T15:56:05.488Z,4.80
2023-04-19T15:58:31.993Z,5.23
2023-04-19T16:00:58.478Z,3.03
2023-04-19T16:03:25.099Z,3.63
2023-04-19T16:05:51.839Z,7.53
2023-04-19T16:08:19.739Z,9.63
2023-04-19T16:10:47.148Z,4.43
2023-04-19T16:13:14.326Z,3.60
2023-04-19T16:15:41.739Z,9.43
2023-04-19T16:18:08.867Z,4.63
2023-04-19T16:20:35.639Z,9.13
2023-04-19T16:23:03.481Z,3.90
2023-04-19T16:25:30.928Z,6.27
2023-04-19T16:27:57.461Z,2.97
2023-04-19T16:30:26.576Z,6.87
2023-04-19T16:32:57.313Z,5.67
2023-04-19T16:35:24.301Z,5.03
2023-04-19T16:37:51.075Z,5.40
2023-04-19T16:40:17.598Z,3.47
2023-04-19T16:42:44.091Z,3.87
2023-04-19T16:45:10.946Z,3.27
2023-04-19T16:47:37.841Z,3.07
2023-04-19T16:50:06.078Z,4.90
2023-04-19T16:52:34.451Z,3.80
2023-04-19T16:55:03.514Z,3.57
2023-04-19T16:57:30.933Z,3.43
2023-04-19T16:59:57.848Z,2.97
2023-04-19T17:02:24.549Z,4.87
2023-04-19T17:04:51.527Z,2.07
2023-04-19T17:07:18.109Z,3.87
2023-04-19T17:09:44.547Z,5.37
2023-04-19T17:12:11.031Z,2.83
2023-04-19T17:14:39.505Z,2.60
2023-04-19T17:17:06.049Z,3.40
2023-04-19T17:19:33.122Z,2.50
2023-04-19T17:22:05.036Z,2.07
2023-04-19T17:24:33.677Z,4.47
2023-04-19T17:27:01.060Z,7.03
2023-04-19T17:29:28.132Z,5.87
2023-04-19T17:31:56.062Z,5.80
2023-04-19T17:34:22.959Z,4.77
2023-04-19T17:36:49.570Z,9.97
2023-04-19T17:39:16.291Z,14.17
2023-04-19T17:41:46.144Z,10.83
2023-04-19T17:44:12.774Z,4.43
2023-04-19T17:46:40.995Z,5.13
2023-04-19T17:49:09.495Z,3.97
2023-04-19T17:51:36.703Z,4.47
2023-04-19T17:54:03.863Z,4.63
2023-04-19T17:56:31.841Z,5.37
2023-04-19T17:59:01.876Z,4.07
2023-04-19T18:01:30.188Z,5.33
2023-04-19T18:03:57.394Z,6.07
2023-04-19T18:06:24.078Z,4.37
2023-04-19T18:08:50.544Z,5.23
2023-04-19T18:11:20.684Z,4.27
2023-04-19T18:13:47.696Z,2.87
2023-04-19T18:16:15.717Z,6.50
2023-04-19T18:18:45.215Z,5.90
2023-04-19T18:21:11.757Z,4.37
2023-04-19T18:23:38.967Z,4.43
2023-04-19T18:26:05.432Z,3.20
2023-04-19T18:28:31.996Z,17.83
2023-04-19T18:30:58.871Z,10.43
2023-04-19T18:33:27.328Z,15.73
2023-04-19T18:35:58.872Z,7.57
2023-04-19T18:38:33.492Z,9.10
2023-04-19T18:41:02.182Z,4.67
2023-04-19T18:43:30.858Z,6.10
2023-04-19T18:46:00.468Z,6.97
2023-04-19T18:48:29.464Z,6.87
2023-04-19T18:50:59.969Z,3.37
2023-04-19T18:53:29.477Z,3.87
2023-04-19T18:56:06.361Z,3.20
2023-04-19T18:58:34.032Z,8.07
2023-04-19T19:01:00.706Z,4.50
2023-04-19T19:05:57.815Z,5.10
2023-04-19T19:08:24.648Z,3.93
2023-04-19T19:13:42.465Z,6.20
2023-04-19T19:16:15.031Z,4.53
2023-04-19T19:18:49.588Z,7.13
2023-04-19T19:21:22.959Z,6.03
2023-04-19T19:23:52.531Z,5.90
2023-04-19T19:26:19.803Z,9.87
2023-04-19T19:28:47.429Z,6.23
2023-04-19T19:31:14.017Z,4.30
2023-04-19T19:33:40.987Z,7.33
2023-04-19T19:36:07.744Z,10.53
2023-04-19T19:38:37.504Z,5.17
2023-04-19T19:41:49.519Z,6.27
2023-04-19T19:43:53.748Z,5.07
2023-04-19T19:46:22.682Z,7.97
2023-04-19T19:48:53.513Z,5.47
2023-04-19T19:51:48.137Z,5.30
2023-04-19T19:54:07.201Z,5.03
2023-04-19T19:59:01.935Z,4.77
2023-04-19T20:01:28.474Z,5.10
2023-04-19T20:03:56.051Z,4.37
2023-04-19T20:08:52.396Z,3.43
2023-04-19T20:11:19.451Z,5.07
2023-04-19T20:13:46.136Z,7.90
2023-04-19T20:16:14.872Z,5.87
2023-04-19T20:18:44.032Z,11.40
2023-04-19T20:21:11.299Z,6.73
2023-04-19T20:23:41.244Z,6.27
2023-04-19T20:26:07.784Z,6.17
2023-04-19T20:28:35.307Z,5.27
2023-04-19T20:31:02.040Z,5.37
2023-04-19T20:33:34.991Z,6.80
2023-04-19T20:36:01.927Z,4.43
2023-04-19T20:38:28.656Z,4.70
2023-04-19T20:40:55.985Z,6.50
2023-04-19T20:43:22.619Z,6.77
2023-04-19T20:45:49.264Z,7.07
2023-04-19T20:48:16.048Z,6.13
2023-04-19T20:50:42.705Z,5.67
2023-04-19T20:53:09.240Z,5.43
2023-04-19T20:55:35.790Z,5.97
2023-04-19T20:58:02.569Z,5.83
2023-04-19T21:00:29.107Z,6.50
2023-04-19T21:02:55.843Z,5.47
2023-04-19T21:05:22.703Z,5.90
2023-04-19T21:07:49.269Z,5.03
2023-04-19T21:10:17.269Z,5.27
2023-04-19T21:12:43.896Z,6.40
2023-04-19T21:15:12.144Z,7.03
2023-04-19T21:17:38.889Z,6.47
2023-04-19T21:20:12.030Z,4.97
2023-04-19T21:22:43.020Z,5.47
2023-04-19T21:25:11.116Z,4.87
2023-04-19T21:27:40.332Z,3.57
2023-04-19T21:30:07.926Z,4.90
2023-04-19T21:32:34.464Z,6.47
2023-04-19T21:35:01.455Z,4.40
2023-04-19T21:37:28.403Z,5.57
2023-04-19T21:39:56.050Z,3.57
2023-04-19T21:42:22.833Z,5.83
2023-04-19T21:44:49.294Z,7.90
2023-04-19T21:47:15.759Z,5.77
2023-04-19T21:49:54.751Z,3.07
2023-04-19T21:52:21.234Z,4.80
2023-04-19T21:54:48.729Z,3.73
2023-04-19T21:57:15.221Z,5.60
2023-04-19T21:59:41.689Z,4.53
2023-04-19T22:02:08.282Z,4.00
2023-04-19T22:04:36.675Z,4.40
2023-04-19T22:07:03.215Z,3.83
2023-04-19T22:09:30.416Z,5.33
2023-04-19T22:11:56.891Z,5.37
2023-04-19T22:14:24.035Z,6.80
2023-04-19T22:16:50.923Z,4.70
2023-04-19T22:19:18.224Z,4.60
2023-04-19T22:21:46.240Z,7.60
2023-04-19T22:24:12.777Z,6.53
2023-04-19T22:26:39.230Z,4.90
2023-04-19T22:29:05.977Z,5.43
2023-04-19T22:31:32.429Z,6.20
2023-04-19T22:33:58.912Z,6.47
2023-04-19T22:36:25.691Z,7.47
2023-04-19T22:38:52.148Z,5.37
2023-04-19T22:41:18.595Z,6.80
2023-04-19T22:43:45.501Z,3.90
2023-04-19T22:46:12.663Z,8.70
2023-04-19T22:48:39.197Z,4.13
2023-04-19T22:51:06.468Z,5.87
2023-04-19T22:53:33.018Z,6.53
2023-04-19T22:55:59.451Z,3.53
2023-04-19T22:58:25.915Z,6.03
2023-04-19T23:00:52.542Z,6.27
2023-04-19T23:03:19.046Z,5.10
2023-04-19T23:05:47.238Z,7.67
2023-04-19T23:08:15.156Z,4.87
2023-04-19T23:10:42.410Z,5.57
2023-04-19T23:13:10.433Z,5.47
2023-04-19T23:15:38.300Z,4.00
2023-04-19T23:18:05.020Z,3.40
2023-04-19T23:20:31.664Z,3.43
2023-04-19T23:22:59.371Z,3.23
2023-04-19T23:25:26.011Z,3.87
2023-04-19T23:27:52.592Z,3.60
2023-04-19T23:30:19.463Z,3.07
2023-04-19T23:32:46.029Z,3.93
2023-04-19T23:35:12.521Z,3.07
2023-04-19T23:37:39.401Z,5.20
2023-04-19T23:40:06.666Z,2.57
2023-04-19T23:42:33.377Z,4.13
2023-04-19T23:44:59.847Z,4.13
2023-04-19T23:47:26.427Z,2.00
2023-04-19T23:49:52.882Z,3.23
2023-04-19T23:52:22.589Z,2.43
2023-04-19T23:54:49.632Z,2.70
2023-04-19T23:57:16.158Z,2.10
2023-04-19T23:59:42.595Z,4.07
